This is the latest recevied weather packets stored in our database for station/object N4OGP-WX. If no packets are shown the sender has not sent any weather packets the latest 10 day(s).
| Time | Temp. | Humidity | Pressure | Rain* | Wind** | Luminosity | Snow |
|---|---|---|---|---|---|---|---|
| 1777501129 | 24.44° C | 88% | 1009.1 hPa | 0 mm | - | - | - |
| 1777501069 | 24.44° C | 88% | 1009.1 hPa | 0 mm | - | - | - |
| 1777501009 | 24.44° C | 88% | 1009.1 hPa | 0 mm | - | - | - |
| 1777500919 | 23.89° C | 42% | 1020.4 hPa | 0 mm | - | - | - |
| 1777500859 | 24.44° C | 88% | 1009.2 hPa | 0 mm | - | - | - |
| 1777500799 | 24.44° C | 88% | 1009.1 hPa | 0 mm | - | - | - |
| 1777500739 | 24.44° C | 88% | 1009.2 hPa | 0 mm | - | - | - |
| 1777500679 | 23.89° C | 42% | 1020.4 hPa | 0 mm | - | - | - |
| 1777500619 | 24.44° C | 88% | 1009.2 hPa | 0 mm | - | - | - |
| 1777500559 | 23.89° C | 42% | 1020.4 hPa | 0 mm | - | - | - |
| 1777500469 | 24.44° C | 87% | 1009.1 hPa | 0 mm | - | - | - |
| 1777500379 | 23.89° C | 42% | 1020.4 hPa | 0 mm | - | - | - |
| 1777500319 | 25° C | 87% | 1009.2 hPa | 0 mm | - | - | - |
| 1777500259 | 23.89° C | 42% | 1020.4 hPa | 0 mm | - | - | - |
| 1777500199 | 23.89° C | 42% | 1020.4 hPa | 0 mm | - | - | - |
| 1777500109 | 25° C | 87% | 1009.2 hPa | 0 mm | - | - | - |
| 1777500049 | 25° C | 87% | 1009.2 hPa | 0 mm | - | - | - |
| 1777499989 | 23.89° C | 42% | 1020.4 hPa | 0 mm | - | - | - |
| 1777499929 | 25° C | 86% | 1009.1 hPa | 0 mm | - | - | - |
| 1777499839 | 25° C | 86% | 1009.3 hPa | 0 mm | - | - | - |
| 1777499779 | 25° C | 86% | 1009.3 hPa | 0 mm | - | - | - |
| 1777499689 | 25° C | 86% | 1009.3 hPa | 0 mm | - | - | - |
| 1777499629 | 25° C | 86% | 1009.3 hPa | 0 mm | - | - | - |
| 1777499569 | 25° C | 86% | 1009.2 hPa | 0 mm | - | - | - |
| 1777499509 | 23.89° C | 42% | 1020.4 hPa | 0 mm | - | - | - |
* Rain latest hour (hover to see other rain measurements)
** Current wind speed in m/s (hover to see current wind gust speed)